sensor_id;sensor_type;location;lat;lon;timestamp;temperature;humidity
61000;SHT31;46879;45.658;11.814;2024-03-17T00:04:19;18.94;74.63
61000;SHT31;46879;45.658;11.814;2024-03-17T00:09:19;18.96;74.69
61000;SHT31;46879;45.658;11.814;2024-03-17T00:14:20;18.96;74.55
61000;SHT31;46879;45.658;11.814;2024-03-17T00:19:23;18.94;74.79
61000;SHT31;46879;45.658;11.814;2024-03-17T00:24:24;18.95;74.79
61000;SHT31;46879;45.658;11.814;2024-03-17T00:29:25;18.95;74.81
61000;SHT31;46879;45.658;11.814;2024-03-17T00:34:26;18.94;74.87
61000;SHT31;46879;45.658;11.814;2024-03-17T00:39:26;18.95;74.89
61000;SHT31;46879;45.658;11.814;2024-03-17T00:44:27;18.91;75.36
61000;SHT31;46879;45.658;11.814;2024-03-17T00:49:28;18.95;75.31
61000;SHT31;46879;45.658;11.814;2024-03-17T00:54:28;18.92;75.24
61000;SHT31;46879;45.658;11.814;2024-03-17T00:59:29;18.94;75.05
61000;SHT31;46879;45.658;11.814;2024-03-17T01:04:30;18.95;75.03
61000;SHT31;46879;45.658;11.814;2024-03-17T01:09:34;18.94;74.99
61000;SHT31;46879;45.658;11.814;2024-03-17T01:14:35;18.94;75.07
61000;SHT31;46879;45.658;11.814;2024-03-17T01:19:35;18.94;75.00
61000;SHT31;46879;45.658;11.814;2024-03-17T01:24:36;18.94;75.15
61000;SHT31;46879;45.658;11.814;2024-03-17T01:29:40;18.92;75.11
61000;SHT31;46879;45.658;11.814;2024-03-17T01:34:41;18.95;75.23
61000;SHT31;46879;45.658;11.814;2024-03-17T01:39:41;18.95;74.99
61000;SHT31;46879;45.658;11.814;2024-03-17T01:44:42;18.96;75.15
61000;SHT31;46879;45.658;11.814;2024-03-17T01:49:43;18.95;75.21
61000;SHT31;46879;45.658;11.814;2024-03-17T01:54:43;18.94;75.05
61000;SHT31;46879;45.658;11.814;2024-03-17T01:59:45;18.96;75.15
61000;SHT31;46879;45.658;11.814;2024-03-17T02:04:46;18.96;75.14
61000;SHT31;46879;45.658;11.814;2024-03-17T02:09:48;18.95;75.19
61000;SHT31;46879;45.658;11.814;2024-03-17T02:14:48;18.95;75.27
61000;SHT31;46879;45.658;11.814;2024-03-17T02:19:49;18.95;75.54
61000;SHT31;46879;45.658;11.814;2024-03-17T02:24:50;18.95;75.36
61000;SHT31;46879;45.658;11.814;2024-03-17T02:29:50;18.96;75.35
61000;SHT31;46879;45.658;11.814;2024-03-17T02:34:51;18.95;75.52
61000;SHT31;46879;45.658;11.814;2024-03-17T02:39:51;18.94;75.56
61000;SHT31;46879;45.658;11.814;2024-03-17T02:44:52;18.92;75.64
61000;SHT31;46879;45.658;11.814;2024-03-17T02:49:52;18.94;75.47
61000;SHT31;46879;45.658;11.814;2024-03-17T02:54:53;18.94;75.56
61000;SHT31;46879;45.658;11.814;2024-03-17T02:59:54;18.96;75.44
61000;SHT31;46879;45.658;11.814;2024-03-17T03:04:55;18.95;75.49
61000;SHT31;46879;45.658;11.814;2024-03-17T03:09:55;18.96;75.51
61000;SHT31;46879;45.658;11.814;2024-03-17T03:14:56;18.96;75.44
61000;SHT31;46879;45.658;11.814;2024-03-17T03:19:57;18.95;75.49
61000;SHT31;46879;45.658;11.814;2024-03-17T03:24:57;18.94;75.63
61000;SHT31;46879;45.658;11.814;2024-03-17T03:29:58;18.95;75.52
61000;SHT31;46879;45.658;11.814;2024-03-17T03:35:00;18.96;75.64
61000;SHT31;46879;45.658;11.814;2024-03-17T03:40:00;18.96;75.56
61000;SHT31;46879;45.658;11.814;2024-03-17T03:45:01;18.95;75.60
61000;SHT31;46879;45.658;11.814;2024-03-17T03:50:02;18.95;75.68
61000;SHT31;46879;45.658;11.814;2024-03-17T03:55:04;18.95;75.75
61000;SHT31;46879;45.658;11.814;2024-03-17T04:00:08;18.95;75.64
61000;SHT31;46879;45.658;11.814;2024-03-17T04:05:12;18.95;75.63
61000;SHT31;46879;45.658;11.814;2024-03-17T04:10:14;18.92;75.74
61000;SHT31;46879;45.658;11.814;2024-03-17T04:15:15;18.94;75.54
61000;SHT31;46879;45.658;11.814;2024-03-17T04:20:16;18.94;75.61
61000;SHT31;46879;45.658;11.814;2024-03-17T04:25:16;18.95;75.56
61000;SHT31;46879;45.658;11.814;2024-03-17T04:30:17;18.95;75.64
61000;SHT31;46879;45.658;11.814;2024-03-17T04:35:17;18.96;75.73
61000;SHT31;46879;45.658;11.814;2024-03-17T04:40:18;18.96;75.51
61000;SHT31;46879;45.658;11.814;2024-03-17T04:45:19;18.96;75.60
61000;SHT31;46879;45.658;11.814;2024-03-17T04:50:20;18.92;75.57
61000;SHT31;46879;45.658;11.814;2024-03-17T04:55:21;18.95;75.54
61000;SHT31;46879;45.658;11.814;2024-03-17T05:00:22;18.94;75.70
61000;SHT31;46879;45.658;11.814;2024-03-17T05:05:22;18.92;75.58
61000;SHT31;46879;45.658;11.814;2024-03-17T05:10:24;18.96;75.47
61000;SHT31;46879;45.658;11.814;2024-03-17T05:15:25;18.94;75.74
61000;SHT31;46879;45.658;11.814;2024-03-17T05:20:25;18.95;75.79
61000;SHT31;46879;45.658;11.814;2024-03-17T05:25:26;18.95;75.80
61000;SHT31;46879;45.658;11.814;2024-03-17T05:30:26;18.94;75.86
61000;SHT31;46879;45.658;11.814;2024-03-17T05:35:27;18.94;75.90
61000;SHT31;46879;45.658;11.814;2024-03-17T05:40:28;18.92;75.89
61000;SHT31;46879;45.658;11.814;2024-03-17T05:45:31;18.92;76.00
61000;SHT31;46879;45.658;11.814;2024-03-17T05:50:32;18.96;75.90
61000;SHT31;46879;45.658;11.814;2024-03-17T05:55:36;18.89;76.38
61000;SHT31;46879;45.658;11.814;2024-03-17T06:00:39;18.91;76.13
61000;SHT31;46879;45.658;11.814;2024-03-17T06:05:40;18.92;76.16
61000;SHT31;46879;45.658;11.814;2024-03-17T06:10:46;18.91;76.32
61000;SHT31;46879;45.658;11.814;2024-03-17T06:15:47;18.96;76.01
61000;SHT31;46879;45.658;11.814;2024-03-17T06:20:48;18.95;75.58
61000;SHT31;46879;45.658;11.814;2024-03-17T06:25:48;18.95;75.35
61000;SHT31;46879;45.658;11.814;2024-03-17T06:30:56;18.96;75.12
61000;SHT31;46879;45.658;11.814;2024-03-17T06:36:07;18.98;74.97
61000;SHT31;46879;45.658;11.814;2024-03-17T06:41:11;18.98;74.78
61000;SHT31;46879;45.658;11.814;2024-03-17T06:46:15;18.92;74.84
61000;SHT31;46879;45.658;11.814;2024-03-17T06:51:15;18.98;74.20
61000;SHT31;46879;45.658;11.814;2024-03-17T06:56:16;18.99;74.35
61000;SHT31;46879;45.658;11.814;2024-03-17T07:01:17;18.98;74.29
61000;SHT31;46879;45.658;11.814;2024-03-17T07:06:18;19.01;74.17
61000;SHT31;46879;45.658;11.814;2024-03-17T07:11:18;19.01;74.03
61000;SHT31;46879;45.658;11.814;2024-03-17T07:16:19;19.02;73.85
61000;SHT31;46879;45.658;11.814;2024-03-17T07:21:21;19.02;73.79
61000;SHT31;46879;45.658;11.814;2024-03-17T07:26:22;19.04;73.69
61000;SHT31;46879;45.658;11.814;2024-03-17T07:31:22;19.01;73.65
61000;SHT31;46879;45.658;11.814;2024-03-17T07:36:23;19.01;73.39
61000;SHT31;46879;45.658;11.814;2024-03-17T07:41:24;18.99;73.34
61000;SHT31;46879;45.658;11.814;2024-03-17T07:46:25;19.01;73.34
61000;SHT31;46879;45.658;11.814;2024-03-17T07:51:25;19.01;73.33
61000;SHT31;46879;45.658;11.814;2024-03-17T07:56:26;18.99;73.28
61000;SHT31;46879;45.658;11.814;2024-03-17T08:01:26;18.99;73.31
61000;SHT31;46879;45.658;11.814;2024-03-17T08:06:27;19.01;73.32
61000;SHT31;46879;45.658;11.814;2024-03-17T08:11:28;19.02;73.29
61000;SHT31;46879;45.658;11.814;2024-03-17T08:16:28;19.04;73.27
61000;SHT31;46879;45.658;11.814;2024-03-17T08:21:30;19.05;73.24
61000;SHT31;46879;45.658;11.814;2024-03-17T08:26:30;19.09;73.12
61000;SHT31;46879;45.658;11.814;2024-03-17T08:31:31;19.09;73.14
61000;SHT31;46879;45.658;11.814;2024-03-17T08:36:32;19.06;73.08
61000;SHT31;46879;45.658;11.814;2024-03-17T08:41:32;19.11;73.04
61000;SHT31;46879;45.658;11.814;2024-03-17T08:46:33;19.14;72.97
61000;SHT31;46879;45.658;11.814;2024-03-17T08:51:33;19.14;73.05
61000;SHT31;46879;45.658;11.814;2024-03-17T08:56:34;19.12;73.03
61000;SHT31;46879;45.658;11.814;2024-03-17T09:01:36;19.15;73.01
61000;SHT31;46879;45.658;11.814;2024-03-17T09:06:36;19.18;72.93
61000;SHT31;46879;45.658;11.814;2024-03-17T09:11:37;19.18;72.90
61000;SHT31;46879;45.658;11.814;2024-03-17T09:16:38;19.18;72.91
61000;SHT31;46879;45.658;11.814;2024-03-17T09:21:38;19.19;72.90
61000;SHT31;46879;45.658;11.814;2024-03-17T09:26:40;19.20;72.84
61000;SHT31;46879;45.658;11.814;2024-03-17T09:31:41;19.22;72.90
61000;SHT31;46879;45.658;11.814;2024-03-17T09:36:41;19.22;72.96
61000;SHT31;46879;45.658;11.814;2024-03-17T09:41:44;19.23;73.04
61000;SHT31;46879;45.658;11.814;2024-03-17T09:46:45;19.23;73.27
61000;SHT31;46879;45.658;11.814;2024-03-17T09:51:47;19.22;73.47
61000;SHT31;46879;45.658;11.814;2024-03-17T09:56:49;19.26;73.70
61000;SHT31;46879;45.658;11.814;2024-03-17T10:01:51;19.27;73.88
61000;SHT31;46879;45.658;11.814;2024-03-17T10:06:51;19.25;73.90
61000;SHT31;46879;45.658;11.814;2024-03-17T10:11:52;19.27;73.99
61000;SHT31;46879;45.658;11.814;2024-03-17T10:16:52;19.29;74.03
61000;SHT31;46879;45.658;11.814;2024-03-17T10:22:00;19.30;74.03
61000;SHT31;46879;45.658;11.814;2024-03-17T10:27:02;19.30;74.00
61000;SHT31;46879;45.658;11.814;2024-03-17T10:32:13;19.32;73.87
61000;SHT31;46879;45.658;11.814;2024-03-17T10:37:18;19.32;73.79
61000;SHT31;46879;45.658;11.814;2024-03-17T10:42:29;19.33;73.73
61000;SHT31;46879;45.658;11.814;2024-03-17T10:47:31;19.32;73.68
61000;SHT31;46879;45.658;11.814;2024-03-17T10:52:33;19.33;73.68
61000;SHT31;46879;45.658;11.814;2024-03-17T11:02:36;19.34;73.62
61000;SHT31;46879;45.658;11.814;2024-03-17T11:07:37;19.34;73.68
61000;SHT31;46879;45.658;11.814;2024-03-17T11:12:48;19.34;73.59
61000;SHT31;46879;45.658;11.814;2024-03-17T11:23:26;19.37;73.51
61000;SHT31;46879;45.658;11.814;2024-03-17T11:33:47;19.34;73.48
61000;SHT31;46879;45.658;11.814;2024-03-17T11:39:00;19.36;73.48
61000;SHT31;46879;45.658;11.814;2024-03-17T11:49:27;19.39;73.42
61000;SHT31;46879;45.658;11.814;2024-03-17T11:54:33;19.39;73.39
61000;SHT31;46879;45.658;11.814;2024-03-17T11:59:34;19.39;73.31
61000;SHT31;46879;45.658;11.814;2024-03-17T12:04:39;19.40;73.31
61000;SHT31;46879;45.658;11.814;2024-03-17T12:09:44;19.43;73.25
61000;SHT31;46879;45.658;11.814;2024-03-17T12:14:50;19.40;73.26
61000;SHT31;46879;45.658;11.814;2024-03-17T12:19:51;19.39;73.21
61000;SHT31;46879;45.658;11.814;2024-03-17T12:24:58;19.43;73.17
61000;SHT31;46879;45.658;11.814;2024-03-17T12:30:00;19.42;73.18
61000;SHT31;46879;45.658;11.814;2024-03-17T12:35:00;19.45;73.11
61000;SHT31;46879;45.658;11.814;2024-03-17T12:40:03;19.49;73.08
61000;SHT31;46879;45.658;11.814;2024-03-17T12:45:09;19.49;73.03
61000;SHT31;46879;45.658;11.814;2024-03-17T12:50:12;19.47;72.94
61000;SHT31;46879;45.658;11.814;2024-03-17T12:55:18;19.50;72.97
61000;SHT31;46879;45.658;11.814;2024-03-17T13:00:38;19.49;72.96
61000;SHT31;46879;45.658;11.814;2024-03-17T13:05:38;19.47;72.92
61000;SHT31;46879;45.658;11.814;2024-03-17T13:10:47;19.47;72.91
61000;SHT31;46879;45.658;11.814;2024-03-17T13:15:48;19.51;72.93
61000;SHT31;46879;45.658;11.814;2024-03-17T13:20:48;19.50;72.90
61000;SHT31;46879;45.658;11.814;2024-03-17T13:25:54;19.50;72.85
61000;SHT31;46879;45.658;11.814;2024-03-17T13:30:54;19.53;72.81
61000;SHT31;46879;45.658;11.814;2024-03-17T13:35:55;19.56;72.86
61000;SHT31;46879;45.658;11.814;2024-03-17T13:40:56;19.51;72.81
61000;SHT31;46879;45.658;11.814;2024-03-17T13:45:56;19.51;72.78
61000;SHT31;46879;45.658;11.814;2024-03-17T13:50:57;19.50;72.80
61000;SHT31;46879;45.658;11.814;2024-03-17T13:55:58;19.51;72.83
61000;SHT31;46879;45.658;11.814;2024-03-17T14:00:58;19.50;72.79
61000;SHT31;46879;45.658;11.814;2024-03-17T14:05:59;19.51;72.82
61000;SHT31;46879;45.658;11.814;2024-03-17T14:10:59;19.50;72.78
61000;SHT31;46879;45.658;11.814;2024-03-17T14:16:00;19.47;72.80
61000;SHT31;46879;45.658;11.814;2024-03-17T14:21:00;19.51;72.76
61000;SHT31;46879;45.658;11.814;2024-03-17T14:26:01;19.49;72.75
61000;SHT31;46879;45.658;11.814;2024-03-17T14:31:02;19.49;72.73
61000;SHT31;46879;45.658;11.814;2024-03-17T14:36:03;19.49;72.68
61000;SHT31;46879;45.658;11.814;2024-03-17T14:41:03;19.47;72.67
61000;SHT31;46879;45.658;11.814;2024-03-17T14:46:05;19.47;72.67
61000;SHT31;46879;45.658;11.814;2024-03-17T14:51:08;19.47;72.62
61000;SHT31;46879;45.658;11.814;2024-03-17T14:56:09;19.45;72.65
61000;SHT31;46879;45.658;11.814;2024-03-17T15:01:11;19.46;72.65
61000;SHT31;46879;45.658;11.814;2024-03-17T15:06:12;19.43;72.63
61000;SHT31;46879;45.658;11.814;2024-03-17T15:11:15;19.45;72.64
61000;SHT31;46879;45.658;11.814;2024-03-17T15:16:15;19.43;72.64
61000;SHT31;46879;45.658;11.814;2024-03-17T15:21:16;19.42;72.60
61000;SHT31;46879;45.658;11.814;2024-03-17T15:26:17;19.45;72.65
61000;SHT31;46879;45.658;11.814;2024-03-17T15:31:19;19.42;72.61
61000;SHT31;46879;45.658;11.814;2024-03-17T15:36:22;19.40;72.62
61000;SHT31;46879;45.658;11.814;2024-03-17T15:41:24;19.42;72.64
61000;SHT31;46879;45.658;11.814;2024-03-17T15:46:25;19.37;72.62
61000;SHT31;46879;45.658;11.814;2024-03-17T15:51:26;19.39;72.61
61000;SHT31;46879;45.658;11.814;2024-03-17T15:56:27;19.37;72.63
61000;SHT31;46879;45.658;11.814;2024-03-17T16:01:28;19.37;72.60
61000;SHT31;46879;45.658;11.814;2024-03-17T16:06:29;19.37;72.63
61000;SHT31;46879;45.658;11.814;2024-03-17T16:11:30;19.34;72.69
61000;SHT31;46879;45.658;11.814;2024-03-17T16:16:32;19.33;72.65
61000;SHT31;46879;45.658;11.814;2024-03-17T16:21:32;19.33;72.66
61000;SHT31;46879;45.658;11.814;2024-03-17T16:26:33;19.33;72.66
61000;SHT31;46879;45.658;11.814;2024-03-17T16:31:38;19.34;72.64
61000;SHT31;46879;45.658;11.814;2024-03-17T16:36:39;19.33;72.68
61000;SHT31;46879;45.658;11.814;2024-03-17T16:41:41;19.33;72.73
61000;SHT31;46879;45.658;11.814;2024-03-17T16:52:04;19.30;72.72
61000;SHT31;46879;45.658;11.814;2024-03-17T16:57:05;19.29;72.71
61000;SHT31;46879;45.658;11.814;2024-03-17T17:02:16;19.29;72.71
61000;SHT31;46879;45.658;11.814;2024-03-17T17:07:17;19.27;72.75
61000;SHT31;46879;45.658;11.814;2024-03-17T17:12:18;19.26;72.74
61000;SHT31;46879;45.658;11.814;2024-03-17T17:17:18;19.26;72.82
61000;SHT31;46879;45.658;11.814;2024-03-17T17:22:19;19.22;72.95
61000;SHT31;46879;45.658;11.814;2024-03-17T17:27:21;19.22;72.92
61000;SHT31;46879;45.658;11.814;2024-03-17T17:32:22;19.22;72.95
61000;SHT31;46879;45.658;11.814;2024-03-17T17:37:23;19.22;72.89
61000;SHT31;46879;45.658;11.814;2024-03-17T17:42:24;19.20;72.88
61000;SHT31;46879;45.658;11.814;2024-03-17T17:47:24;19.19;72.80
61000;SHT31;46879;45.658;11.814;2024-03-17T17:52:25;19.20;72.71
61000;SHT31;46879;45.658;11.814;2024-03-17T17:57:25;19.20;72.70
61000;SHT31;46879;45.658;11.814;2024-03-17T18:02:34;19.19;72.66
61000;SHT31;46879;45.658;11.814;2024-03-17T18:07:35;19.14;72.76
61000;SHT31;46879;45.658;11.814;2024-03-17T18:12:35;19.15;72.63
61000;SHT31;46879;45.658;11.814;2024-03-17T18:17:36;19.15;72.63
61000;SHT31;46879;45.658;11.814;2024-03-17T18:22:37;19.16;72.58
61000;SHT31;46879;45.658;11.814;2024-03-17T18:27:38;19.14;72.53
61000;SHT31;46879;45.658;11.814;2024-03-17T18:32:38;19.15;72.53
61000;SHT31;46879;45.658;11.814;2024-03-17T18:37:39;19.12;72.53
61000;SHT31;46879;45.658;11.814;2024-03-17T18:42:40;19.15;72.48
61000;SHT31;46879;45.658;11.814;2024-03-17T18:47:40;19.14;72.45
61000;SHT31;46879;45.658;11.814;2024-03-17T18:52:43;19.11;72.49
61000;SHT31;46879;45.658;11.814;2024-03-17T18:57:45;19.14;72.43
61000;SHT31;46879;45.658;11.814;2024-03-17T19:02:49;19.11;74.38
61000;SHT31;46879;45.658;11.814;2024-03-17T19:07:51;19.16;74.59
61000;SHT31;46879;45.658;11.814;2024-03-17T19:12:52;19.12;74.54
61000;SHT31;46879;45.658;11.814;2024-03-17T19:17:55;19.11;74.37
61000;SHT31;46879;45.658;11.814;2024-03-17T19:22:58;19.11;74.37
61000;SHT31;46879;45.658;11.814;2024-03-17T19:28:01;19.11;74.23
61000;SHT31;46879;45.658;11.814;2024-03-17T19:33:01;19.09;74.16
61000;SHT31;46879;45.658;11.814;2024-03-17T19:38:04;19.09;74.11
61000;SHT31;46879;45.658;11.814;2024-03-17T19:43:05;19.12;74.02
61000;SHT31;46879;45.658;11.814;2024-03-17T19:48:09;19.11;73.91
61000;SHT31;46879;45.658;11.814;2024-03-17T19:53:10;19.06;73.85
61000;SHT31;46879;45.658;11.814;2024-03-17T19:58:11;19.09;73.84
61000;SHT31;46879;45.658;11.814;2024-03-17T20:03:12;19.09;73.72
61000;SHT31;46879;45.658;11.814;2024-03-17T20:08:15;19.05;73.70
61000;SHT31;46879;45.658;11.814;2024-03-17T20:13:15;19.08;73.63
61000;SHT31;46879;45.658;11.814;2024-03-17T20:18:16;19.06;73.58
61000;SHT31;46879;45.658;11.814;2024-03-17T20:23:17;19.05;73.58
61000;SHT31;46879;45.658;11.814;2024-03-17T20:28:17;19.04;73.57
61000;SHT31;46879;45.658;11.814;2024-03-17T20:33:18;19.04;73.51
61000;SHT31;46879;45.658;11.814;2024-03-17T20:38:18;19.02;73.50
61000;SHT31;46879;45.658;11.814;2024-03-17T20:43:19;19.04;73.42
61000;SHT31;46879;45.658;11.814;2024-03-17T20:48:20;19.02;73.43
61000;SHT31;46879;45.658;11.814;2024-03-17T20:53:21;18.99;73.43
61000;SHT31;46879;45.658;11.814;2024-03-17T20:58:22;19.01;73.40
61000;SHT31;46879;45.658;11.814;2024-03-17T21:03:24;18.98;73.37
61000;SHT31;46879;45.658;11.814;2024-03-17T21:08:25;18.99;73.33
61000;SHT31;46879;45.658;11.814;2024-03-17T21:13:25;18.98;73.33
61000;SHT31;46879;45.658;11.814;2024-03-17T21:18:26;18.98;73.29
61000;SHT31;46879;45.658;11.814;2024-03-17T21:23:26;18.96;73.33
61000;SHT31;46879;45.658;11.814;2024-03-17T21:28:27;18.98;73.30
61000;SHT31;46879;45.658;11.814;2024-03-17T21:33:32;18.96;73.25
61000;SHT31;46879;45.658;11.814;2024-03-17T21:38:33;18.95;73.23
61000;SHT31;46879;45.658;11.814;2024-03-17T21:43:33;18.95;73.21
61000;SHT31;46879;45.658;11.814;2024-03-17T21:48:35;18.96;73.22
61000;SHT31;46879;45.658;11.814;2024-03-17T21:53:37;18.94;73.19
61000;SHT31;46879;45.658;11.814;2024-03-17T21:58:37;18.95;73.19
61000;SHT31;46879;45.658;11.814;2024-03-17T22:03:38;18.92;73.18
61000;SHT31;46879;45.658;11.814;2024-03-17T22:08:39;18.92;73.19
61000;SHT31;46879;45.658;11.814;2024-03-17T22:13:40;18.91;73.13
61000;SHT31;46879;45.658;11.814;2024-03-17T22:18:40;18.89;73.60
61000;SHT31;46879;45.658;11.814;2024-03-17T22:23:43;18.88;73.87
61000;SHT31;46879;45.658;11.814;2024-03-17T22:28:44;18.91;73.80
61000;SHT31;46879;45.658;11.814;2024-03-17T22:33:45;18.91;73.86
61000;SHT31;46879;45.658;11.814;2024-03-17T22:38:45;18.92;73.96
61000;SHT31;46879;45.658;11.814;2024-03-17T22:43:46;18.94;73.88
61000;SHT31;46879;45.658;11.814;2024-03-17T22:48:47;18.95;73.93
61000;SHT31;46879;45.658;11.814;2024-03-17T22:53:47;18.92;74.02
61000;SHT31;46879;45.658;11.814;2024-03-17T22:58:48;18.94;74.02
61000;SHT31;46879;45.658;11.814;2024-03-17T23:03:48;18.94;73.98
61000;SHT31;46879;45.658;11.814;2024-03-17T23:08:57;18.96;74.07
61000;SHT31;46879;45.658;11.814;2024-03-17T23:13:59;18.94;74.15
61000;SHT31;46879;45.658;11.814;2024-03-17T23:19:00;18.95;74.44
61000;SHT31;46879;45.658;11.814;2024-03-17T23:24:02;18.95;74.35
61000;SHT31;46879;45.658;11.814;2024-03-17T23:29:02;18.95;74.43
61000;SHT31;46879;45.658;11.814;2024-03-17T23:34:03;18.92;74.51
61000;SHT31;46879;45.658;11.814;2024-03-17T23:39:04;18.95;74.38
61000;SHT31;46879;45.658;11.814;2024-03-17T23:44:04;18.94;74.38
61000;SHT31;46879;45.658;11.814;2024-03-17T23:49:05;18.95;74.49
61000;SHT31;46879;45.658;11.814;2024-03-17T23:54:05;18.95;74.65
61000;SHT31;46879;45.658;11.814;2024-03-17T23:59:06;18.94;74.64
